sensor_id;sensor_type;location;lat;lon;timestamp;temperature;humidity
10986;DHT22;5546;48.714;8.738;2023-03-01T00:01:16;1.90;84.20
10986;DHT22;5546;48.714;8.738;2023-03-01T00:03:42;1.80;84.20
10986;DHT22;5546;48.714;8.738;2023-03-01T00:06:08;1.80;84.50
10986;DHT22;5546;48.714;8.738;2023-03-01T00:08:34;1.60;84.10
10986;DHT22;5546;48.714;8.738;2023-03-01T00:11:05;1.70;84.90
10986;DHT22;5546;48.714;8.738;2023-03-01T00:13:32;1.60;85.30
10986;DHT22;5546;48.714;8.738;2023-03-01T00:15:58;1.50;85.60
10986;DHT22;5546;48.714;8.738;2023-03-01T00:20:51;1.70;84.80
10986;DHT22;5546;48.714;8.738;2023-03-01T00:23:17;1.50;85.20
10986;DHT22;5546;48.714;8.738;2023-03-01T00:40:24;1.90;83.90
10986;DHT22;5546;48.714;8.738;2023-03-01T00:42:50;1.80;83.90
10986;DHT22;5546;48.714;8.738;2023-03-01T00:47:43;1.50;84.70
10986;DHT22;5546;48.714;8.738;2023-03-01T00:50:09;1.20;85.50
10986;DHT22;5546;48.714;8.738;2023-03-01T00:55:02;1.00;86.60
10986;DHT22;5546;48.714;8.738;2023-03-01T00:59:54;1.40;85.60
10986;DHT22;5546;48.714;8.738;2023-03-01T01:02:20;1.30;85.70
10986;DHT22;5546;48.714;8.738;2023-03-01T01:04:46;1.20;86.50
10986;DHT22;5546;48.714;8.738;2023-03-01T01:07:11;1.50;85.80
10986;DHT22;5546;48.714;8.738;2023-03-01T01:09:37;1.60;84.60
10986;DHT22;5546;48.714;8.738;2023-03-01T01:12:03;1.40;85.10
10986;DHT22;5546;48.714;8.738;2023-03-01T01:24:14;1.30;85.40
10986;DHT22;5546;48.714;8.738;2023-03-01T01:26:41;1.30;85.30
10986;DHT22;5546;48.714;8.738;2023-03-01T01:31:34;1.30;84.90
10986;DHT22;5546;48.714;8.738;2023-03-01T01:34:02;1.10;85.40
10986;DHT22;5546;48.714;8.738;2023-03-01T01:36:29;1.30;85.40
10986;DHT22;5546;48.714;8.738;2023-03-01T01:44:10;1.10;85.90
10986;DHT22;5546;48.714;8.738;2023-03-01T01:46:36;1.20;86.50
10986;DHT22;5546;48.714;8.738;2023-03-01T01:49:07;1.40;85.60
10986;DHT22;5546;48.714;8.738;2023-03-01T01:51:38;1.60;84.70
10986;DHT22;5546;48.714;8.738;2023-03-01T01:54:18;1.40;84.60
10986;DHT22;5546;48.714;8.738;2023-03-01T01:56:55;1.40;85.50
10986;DHT22;5546;48.714;8.738;2023-03-01T01:59:23;1.30;84.90
10986;DHT22;5546;48.714;8.738;2023-03-01T02:01:51;1.30;85.20
10986;DHT22;5546;48.714;8.738;2023-03-01T02:06:51;1.40;85.50
10986;DHT22;5546;48.714;8.738;2023-03-01T02:09:20;1.40;85.20
10986;DHT22;5546;48.714;8.738;2023-03-01T02:11:47;1.30;85.60
10986;DHT22;5546;48.714;8.738;2023-03-01T02:14:14;1.00;85.20
10986;DHT22;5546;48.714;8.738;2023-03-01T02:19:09;0.90;86.50
10986;DHT22;5546;48.714;8.738;2023-03-01T02:21:38;0.90;87.00
10986;DHT22;5546;48.714;8.738;2023-03-01T02:26:52;1.10;86.10
10986;DHT22;5546;48.714;8.738;2023-03-01T02:29:21;1.10;86.00
10986;DHT22;5546;48.714;8.738;2023-03-01T02:34:16;1.20;85.10
10986;DHT22;5546;48.714;8.738;2023-03-01T02:36:57;1.20;84.70
10986;DHT22;5546;48.714;8.738;2023-03-01T02:39:28;1.00;85.70
10986;DHT22;5546;48.714;8.738;2023-03-01T02:41:56;1.00;85.50
10986;DHT22;5546;48.714;8.738;2023-03-01T02:44:23;1.00;85.60
10986;DHT22;5546;48.714;8.738;2023-03-01T02:46:51;0.90;86.20
10986;DHT22;5546;48.714;8.738;2023-03-01T02:49:37;0.80;86.70
10986;DHT22;5546;48.714;8.738;2023-03-01T02:54:39;0.70;86.90
10986;DHT22;5546;48.714;8.738;2023-03-01T02:57:05;1.00;86.50
10986;DHT22;5546;48.714;8.738;2023-03-01T02:59:33;1.10;85.50
10986;DHT22;5546;48.714;8.738;2023-03-01T03:02:05;0.90;86.50
10986;DHT22;5546;48.714;8.738;2023-03-01T03:06:57;1.00;86.70
10986;DHT22;5546;48.714;8.738;2023-03-01T03:11:48;1.00;86.10
10986;DHT22;5546;48.714;8.738;2023-03-01T03:14:17;1.50;85.70
10986;DHT22;5546;48.714;8.738;2023-03-01T03:16:46;1.60;84.60
10986;DHT22;5546;48.714;8.738;2023-03-01T03:19:11;1.60;84.60
10986;DHT22;5546;48.714;8.738;2023-03-01T03:21:37;1.30;85.40
10986;DHT22;5546;48.714;8.738;2023-03-01T03:24:03;1.20;85.70
10986;DHT22;5546;48.714;8.738;2023-03-01T03:26:30;1.40;86.00
10986;DHT22;5546;48.714;8.738;2023-03-01T03:28:55;1.40;85.60
10986;DHT22;5546;48.714;8.738;2023-03-01T03:31:22;1.50;85.80
10986;DHT22;5546;48.714;8.738;2023-03-01T03:36:18;1.60;85.40
10986;DHT22;5546;48.714;8.738;2023-03-01T03:38:45;1.60;85.10
10986;DHT22;5546;48.714;8.738;2023-03-01T03:41:14;1.40;85.20
10986;DHT22;5546;48.714;8.738;2023-03-01T03:43:41;1.40;86.80
10986;DHT22;5546;48.714;8.738;2023-03-01T03:48:35;1.80;84.60
10986;DHT22;5546;48.714;8.738;2023-03-01T03:51:01;2.00;84.40
10986;DHT22;5546;48.714;8.738;2023-03-01T03:53:27;2.00;84.00
10986;DHT22;5546;48.714;8.738;2023-03-01T03:55:54;1.60;84.20
10986;DHT22;5546;48.714;8.738;2023-03-01T03:58:22;1.60;85.60
10986;DHT22;5546;48.714;8.738;2023-03-01T04:00:55;1.70;85.60
10986;DHT22;5546;48.714;8.738;2023-03-01T04:03:22;1.70;84.90
10986;DHT22;5546;48.714;8.738;2023-03-01T04:05:48;1.80;84.50
10986;DHT22;5546;48.714;8.738;2023-03-01T04:08:16;1.60;84.60
10986;DHT22;5546;48.714;8.738;2023-03-01T04:10:46;1.70;85.60
10986;DHT22;5546;48.714;8.738;2023-03-01T04:13:15;1.80;85.30
10986;DHT22;5546;48.714;8.738;2023-03-01T04:18:09;1.90;84.70
10986;DHT22;5546;48.714;8.738;2023-03-01T04:23:18;2.20;84.20
10986;DHT22;5546;48.714;8.738;2023-03-01T04:25:52;2.30;83.50
10986;DHT22;5546;48.714;8.738;2023-03-01T04:35:39;2.40;83.40
10986;DHT22;5546;48.714;8.738;2023-03-01T04:38:05;2.50;82.60
10986;DHT22;5546;48.714;8.738;2023-03-01T04:40:31;2.60;82.40
10986;DHT22;5546;48.714;8.738;2023-03-01T04:42:57;2.50;82.60
10986;DHT22;5546;48.714;8.738;2023-03-01T04:45:23;2.60;82.40
10986;DHT22;5546;48.714;8.738;2023-03-01T04:50:18;2.40;82.70
10986;DHT22;5546;48.714;8.738;2023-03-01T04:52:46;2.80;82.30
10986;DHT22;5546;48.714;8.738;2023-03-01T04:55:12;2.70;82.20
10986;DHT22;5546;48.714;8.738;2023-03-01T04:57:39;2.40;82.00
10986;DHT22;5546;48.714;8.738;2023-03-01T05:00:06;2.40;83.10
10986;DHT22;5546;48.714;8.738;2023-03-01T05:02:52;2.70;82.30
10986;DHT22;5546;48.714;8.738;2023-03-01T05:05:24;2.90;81.90
10986;DHT22;5546;48.714;8.738;2023-03-01T05:07:55;2.60;81.70
10986;DHT22;5546;48.714;8.738;2023-03-01T05:10:21;2.60;82.20
10986;DHT22;5546;48.714;8.738;2023-03-01T05:17:39;2.80;82.10
10986;DHT22;5546;48.714;8.738;2023-03-01T05:20:05;2.80;82.50
10986;DHT22;5546;48.714;8.738;2023-03-01T05:25:00;2.60;83.10
10986;DHT22;5546;48.714;8.738;2023-03-01T05:29:52;2.10;84.30
10986;DHT22;5546;48.714;8.738;2023-03-01T05:39:37;2.70;83.10
10986;DHT22;5546;48.714;8.738;2023-03-01T05:42:03;2.60;82.90
10986;DHT22;5546;48.714;8.738;2023-03-01T05:46:55;2.70;84.00
10986;DHT22;5546;48.714;8.738;2023-03-01T05:51:52;3.10;82.70
10986;DHT22;5546;48.714;8.738;2023-03-01T05:54:19;2.90;82.50
10986;DHT22;5546;48.714;8.738;2023-03-01T05:59:11;2.80;82.90
10986;DHT22;5546;48.714;8.738;2023-03-01T06:04:03;3.10;82.50
10986;DHT22;5546;48.714;8.738;2023-03-01T06:06:29;3.10;82.70
10986;DHT22;5546;48.714;8.738;2023-03-01T06:08:58;3.00;83.10
10986;DHT22;5546;48.714;8.738;2023-03-01T06:18:42;3.30;82.10
10986;DHT22;5546;48.714;8.738;2023-03-01T06:21:08;3.40;82.40
10986;DHT22;5546;48.714;8.738;2023-03-01T06:23:34;3.50;81.80
10986;DHT22;5546;48.714;8.738;2023-03-01T06:26:00;3.60;81.80
10986;DHT22;5546;48.714;8.738;2023-03-01T06:28:26;3.10;82.10
10986;DHT22;5546;48.714;8.738;2023-03-01T06:30:52;3.10;82.50
10986;DHT22;5546;48.714;8.738;2023-03-01T06:33:18;3.20;83.20
10986;DHT22;5546;48.714;8.738;2023-03-01T06:35:46;3.40;81.70
10986;DHT22;5546;48.714;8.738;2023-03-01T06:40:40;2.50;83.60
10986;DHT22;5546;48.714;8.738;2023-03-01T06:43:05;3.00;83.40
10986;DHT22;5546;48.714;8.738;2023-03-01T06:45:32;3.30;82.40
10986;DHT22;5546;48.714;8.738;2023-03-01T06:48:03;3.50;81.80
10986;DHT22;5546;48.714;8.738;2023-03-01T06:50:29;3.50;81.50
10986;DHT22;5546;48.714;8.738;2023-03-01T06:52:57;3.40;81.20
10986;DHT22;5546;48.714;8.738;2023-03-01T06:55:23;3.30;82.20
10986;DHT22;5546;48.714;8.738;2023-03-01T06:57:53;3.40;82.40
10986;DHT22;5546;48.714;8.738;2023-03-01T07:00:19;3.30;82.60
10986;DHT22;5546;48.714;8.738;2023-03-01T07:02:45;3.30;82.30
10986;DHT22;5546;48.714;8.738;2023-03-01T07:34:23;4.80;76.70
10986;DHT22;5546;48.714;8.738;2023-03-01T07:36:49;4.90;77.00
10986;DHT22;5546;48.714;8.738;2023-03-01T07:48:59;7.40;68.40
10986;DHT22;5546;48.714;8.738;2023-03-01T07:51:25;7.90;68.90
10986;DHT22;5546;48.714;8.738;2023-03-01T07:53:50;8.50;66.80
10986;DHT22;5546;48.714;8.738;2023-03-01T07:56:16;8.50;67.40
10986;DHT22;5546;48.714;8.738;2023-03-01T07:58:44;9.40;64.90
10986;DHT22;5546;48.714;8.738;2023-03-01T08:01:12;12.60;63.70
10986;DHT22;5546;48.714;8.738;2023-03-01T08:03:38;11.50;59.80
10986;DHT22;5546;48.714;8.738;2023-03-01T08:06:06;12.60;57.60
10986;DHT22;5546;48.714;8.738;2023-03-01T08:08:32;13.30;55.50
10986;DHT22;5546;48.714;8.738;2023-03-01T08:10:59;14.30;53.50
10986;DHT22;5546;48.714;8.738;2023-03-01T08:13:25;14.60;51.60
10986;DHT22;5546;48.714;8.738;2023-03-01T08:15:52;14.60;50.90
10986;DHT22;5546;48.714;8.738;2023-03-01T08:18:19;14.50;49.90
10986;DHT22;5546;48.714;8.738;2023-03-01T08:20:45;14.10;51.10
10986;DHT22;5546;48.714;8.738;2023-03-01T08:23:11;14.50;50.50
10986;DHT22;5546;48.714;8.738;2023-03-01T08:25:38;14.30;50.20
10986;DHT22;5546;48.714;8.738;2023-03-01T08:28:04;14.60;49.40
10986;DHT22;5546;48.714;8.738;2023-03-01T08:30:30;15.20;49.10
10986;DHT22;5546;48.714;8.738;2023-03-01T08:32:56;15.00;48.10
10986;DHT22;5546;48.714;8.738;2023-03-01T08:35:21;14.30;47.70
10986;DHT22;5546;48.714;8.738;2023-03-01T08:37:47;14.80;49.10
10986;DHT22;5546;48.714;8.738;2023-03-01T08:40:13;15.30;48.60
10986;DHT22;5546;48.714;8.738;2023-03-01T08:42:42;15.60;47.60
10986;DHT22;5546;48.714;8.738;2023-03-01T08:45:09;15.90;46.40
10986;DHT22;5546;48.714;8.738;2023-03-01T08:47:35;16.60;46.10
10986;DHT22;5546;48.714;8.738;2023-03-01T08:50:01;17.20;44.10
10986;DHT22;5546;48.714;8.738;2023-03-01T08:52:26;16.40;45.60
10986;DHT22;5546;48.714;8.738;2023-03-01T08:54:53;17.00;44.10
10986;DHT22;5546;48.714;8.738;2023-03-01T08:57:18;17.10;44.30
10986;DHT22;5546;48.714;8.738;2023-03-01T08:59:44;17.40;43.40
10986;DHT22;5546;48.714;8.738;2023-03-01T09:02:14;17.40;43.40
10986;DHT22;5546;48.714;8.738;2023-03-01T09:04:40;15.30;45.40
10986;DHT22;5546;48.714;8.738;2023-03-01T09:07:06;15.40;46.30
10986;DHT22;5546;48.714;8.738;2023-03-01T09:09:32;14.50;47.00
10986;DHT22;5546;48.714;8.738;2023-03-01T09:11:58;13.10;47.80
10986;DHT22;5546;48.714;8.738;2023-03-01T09:14:23;12.10;51.10
10986;DHT22;5546;48.714;8.738;2023-03-01T09:16:49;12.00;51.20
10986;DHT22;5546;48.714;8.738;2023-03-01T09:19:14;11.10;53.20
10986;DHT22;5546;48.714;8.738;2023-03-01T09:21:40;10.20;54.40
10986;DHT22;5546;48.714;8.738;2023-03-01T09:24:12;10.20;55.60
10986;DHT22;5546;48.714;8.738;2023-03-01T09:26:38;10.20;56.00
10986;DHT22;5546;48.714;8.738;2023-03-01T09:29:04;10.10;56.00
10986;DHT22;5546;48.714;8.738;2023-03-01T09:31:30;8.80;57.70
10986;DHT22;5546;48.714;8.738;2023-03-01T09:36:23;8.70;58.90
10986;DHT22;5546;48.714;8.738;2023-03-01T09:38:50;8.70;58.70
10986;DHT22;5546;48.714;8.738;2023-03-01T09:41:26;8.50;59.00
10986;DHT22;5546;48.714;8.738;2023-03-01T09:44:01;8.50;59.80
10986;DHT22;5546;48.714;8.738;2023-03-01T09:46:34;8.70;58.90
10986;DHT22;5546;48.714;8.738;2023-03-01T09:49:05;8.70;59.40
10986;DHT22;5546;48.714;8.738;2023-03-01T09:51:34;10.10;56.30
10986;DHT22;5546;48.714;8.738;2023-03-01T09:54:05;10.60;56.50
10986;DHT22;5546;48.714;8.738;2023-03-01T09:56:41;10.50;56.90
10986;DHT22;5546;48.714;8.738;2023-03-01T10:02:23;12.60;53.60
10986;DHT22;5546;48.714;8.738;2023-03-01T10:04:55;13.90;49.10
10986;DHT22;5546;48.714;8.738;2023-03-01T10:10:38;15.00;48.60
10986;DHT22;5546;48.714;8.738;2023-03-01T10:15:56;16.10;45.40
10986;DHT22;5546;48.714;8.738;2023-03-01T10:18:30;16.90;44.60
10986;DHT22;5546;48.714;8.738;2023-03-01T10:21:11;16.70;44.10
10986;DHT22;5546;48.714;8.738;2023-03-01T10:23:38;17.80;43.00
10986;DHT22;5546;48.714;8.738;2023-03-01T10:27:16;18.70;41.50
10986;DHT22;5546;48.714;8.738;2023-03-01T10:29:10;18.30;41.40
10986;DHT22;5546;48.714;8.738;2023-03-01T10:34:06;17.70;41.80
10986;DHT22;5546;48.714;8.738;2023-03-01T10:36:33;15.60;43.70
10986;DHT22;5546;48.714;8.738;2023-03-01T10:39:04;14.30;46.70
10986;DHT22;5546;48.714;8.738;2023-03-01T10:41:51;14.80;46.50
10986;DHT22;5546;48.714;8.738;2023-03-01T10:44:41;14.70;47.00
10986;DHT22;5546;48.714;8.738;2023-03-01T10:47:16;15.40;45.90
10986;DHT22;5546;48.714;8.738;2023-03-01T10:49:59;17.90;43.00
10986;DHT22;5546;48.714;8.738;2023-03-01T10:52:29;19.20;39.90
10986;DHT22;5546;48.714;8.738;2023-03-01T10:57:49;17.50;42.50
10986;DHT22;5546;48.714;8.738;2023-03-01T11:00:26;18.20;41.40
10986;DHT22;5546;48.714;8.738;2023-03-01T11:03:04;19.10;40.40
10986;DHT22;5546;48.714;8.738;2023-03-01T11:05:35;18.80;40.30
10986;DHT22;5546;48.714;8.738;2023-03-01T11:08:02;19.00;40.30
10986;DHT22;5546;48.714;8.738;2023-03-01T11:10:34;18.50;40.20
10986;DHT22;5546;48.714;8.738;2023-03-01T11:13:18;17.30;42.50
10986;DHT22;5546;48.714;8.738;2023-03-01T11:16:27;17.60;41.60
10986;DHT22;5546;48.714;8.738;2023-03-01T11:19:20;18.50;41.00
10986;DHT22;5546;48.714;8.738;2023-03-01T11:24:30;20.10;37.80
10986;DHT22;5546;48.714;8.738;2023-03-01T11:26:56;20.50;37.40
10986;DHT22;5546;48.714;8.738;2023-03-01T11:31:51;17.50;40.80
10986;DHT22;5546;48.714;8.738;2023-03-01T11:34:32;16.40;42.90
10986;DHT22;5546;48.714;8.738;2023-03-01T11:37:07;16.30;43.90
10986;DHT22;5546;48.714;8.738;2023-03-01T11:39:42;17.10;42.70
10986;DHT22;5546;48.714;8.738;2023-03-01T11:42:15;18.60;40.50
10986;DHT22;5546;48.714;8.738;2023-03-01T11:44:43;17.90;39.80
10986;DHT22;5546;48.714;8.738;2023-03-01T11:47:16;16.40;42.60
10986;DHT22;5546;48.714;8.738;2023-03-01T11:49:59;16.60;43.40
10986;DHT22;5546;48.714;8.738;2023-03-01T11:55:36;15.70;44.30
10986;DHT22;5546;48.714;8.738;2023-03-01T12:01:05;18.70;40.20
10986;DHT22;5546;48.714;8.738;2023-03-01T12:06:50;17.90;41.50
10986;DHT22;5546;48.714;8.738;2023-03-01T12:09:21;17.50;41.80
10986;DHT22;5546;48.714;8.738;2023-03-01T12:12:25;19.00;40.30
10986;DHT22;5546;48.714;8.738;2023-03-01T12:15:06;19.10;39.10
10986;DHT22;5546;48.714;8.738;2023-03-01T12:20:47;19.30;39.20
10986;DHT22;5546;48.714;8.738;2023-03-01T12:23:21;20.10;37.90
10986;DHT22;5546;48.714;8.738;2023-03-01T12:26:08;21.70;36.10
10986;DHT22;5546;48.714;8.738;2023-03-01T12:29:08;19.40;38.00
10986;DHT22;5546;48.714;8.738;2023-03-01T12:31:42;18.70;38.80
10986;DHT22;5546;48.714;8.738;2023-03-01T12:42:48;18.10;40.80
10986;DHT22;5546;48.714;8.738;2023-03-01T12:45:44;18.50;39.80
10986;DHT22;5546;48.714;8.738;2023-03-01T12:48:38;18.10;39.60
10986;DHT22;5546;48.714;8.738;2023-03-01T12:51:08;17.60;41.20
10986;DHT22;5546;48.714;8.738;2023-03-01T12:53:43;16.80;41.30
10986;DHT22;5546;48.714;8.738;2023-03-01T12:56:23;14.90;44.30
10986;DHT22;5546;48.714;8.738;2023-03-01T13:04:31;17.50;42.50
10986;DHT22;5546;48.714;8.738;2023-03-01T13:07:19;18.60;40.50
10986;DHT22;5546;48.714;8.738;2023-03-01T13:10:08;18.90;39.70
10986;DHT22;5546;48.714;8.738;2023-03-01T13:17:55;17.70;41.90
10986;DHT22;5546;48.714;8.738;2023-03-01T13:20:44;18.90;40.10
10986;DHT22;5546;48.714;8.738;2023-03-01T13:28:47;16.60;42.40
10986;DHT22;5546;48.714;8.738;2023-03-01T13:33:45;17.50;41.30
10986;DHT22;5546;48.714;8.738;2023-03-01T13:36:45;17.50;41.50
10986;DHT22;5546;48.714;8.738;2023-03-01T13:39:04;18.40;40.70
10986;DHT22;5546;48.714;8.738;2023-03-01T13:47:06;16.30;42.70
10986;DHT22;5546;48.714;8.738;2023-03-01T13:49:57;15.70;43.40
10986;DHT22;5546;48.714;8.738;2023-03-01T13:55:48;15.80;43.90
10986;DHT22;5546;48.714;8.738;2023-03-01T13:58:26;16.30;43.40
10986;DHT22;5546;48.714;8.738;2023-03-01T14:01:05;14.80;44.90
10986;DHT22;5546;48.714;8.738;2023-03-01T14:03:39;14.30;45.70
10986;DHT22;5546;48.714;8.738;2023-03-01T14:06:08;14.10;46.10
10986;DHT22;5546;48.714;8.738;2023-03-01T14:08:35;13.60;47.00
10986;DHT22;5546;48.714;8.738;2023-03-01T14:16:32;12.30;50.30
10986;DHT22;5546;48.714;8.738;2023-03-01T14:19:22;12.50;49.90
10986;DHT22;5546;48.714;8.738;2023-03-01T14:22:16;11.50;51.10
10986;DHT22;5546;48.714;8.738;2023-03-01T14:24:54;10.90;53.20
10986;DHT22;5546;48.714;8.738;2023-03-01T14:27:20;10.40;54.00
10986;DHT22;5546;48.714;8.738;2023-03-01T14:30:01;10.00;55.50
10986;DHT22;5546;48.714;8.738;2023-03-01T14:32:29;9.10;57.10
10986;DHT22;5546;48.714;8.738;2023-03-01T14:34:56;8.80;58.60
10986;DHT22;5546;48.714;8.738;2023-03-01T14:37:25;8.30;59.60
10986;DHT22;5546;48.714;8.738;2023-03-01T14:39:53;8.50;59.70
10986;DHT22;5546;48.714;8.738;2023-03-01T14:42:20;8.70;59.80
10986;DHT22;5546;48.714;8.738;2023-03-01T14:44:51;9.40;58.40
10986;DHT22;5546;48.714;8.738;2023-03-01T14:47:29;9.30;57.50
10986;DHT22;5546;48.714;8.738;2023-03-01T14:50:42;9.30;58.30
10986;DHT22;5546;48.714;8.738;2023-03-01T14:52:50;9.90;57.20
10986;DHT22;5546;48.714;8.738;2023-03-01T14:55:23;10.20;56.20
10986;DHT22;5546;48.714;8.738;2023-03-01T14:57:51;10.10;56.50
10986;DHT22;5546;48.714;8.738;2023-03-01T15:00:19;10.10;56.60
10986;DHT22;5546;48.714;8.738;2023-03-01T15:02:47;10.10;56.70
10986;DHT22;5546;48.714;8.738;2023-03-01T15:05:14;9.80;57.00
10986;DHT22;5546;48.714;8.738;2023-03-01T15:07:42;8.90;58.30
10986;DHT22;5546;48.714;8.738;2023-03-01T15:10:23;9.20;59.30
10986;DHT22;5546;48.714;8.738;2023-03-01T15:12:49;9.70;58.20
10986;DHT22;5546;48.714;8.738;2023-03-01T15:15:36;9.90;57.80
10986;DHT22;5546;48.714;8.738;2023-03-01T15:18:12;9.60;57.70
10986;DHT22;5546;48.714;8.738;2023-03-01T15:23:05;10.00;57.80
10986;DHT22;5546;48.714;8.738;2023-03-01T15:25:32;9.90;57.40
10986;DHT22;5546;48.714;8.738;2023-03-01T15:28:00;9.20;58.90
10986;DHT22;5546;48.714;8.738;2023-03-01T15:35:47;8.70;60.40
10986;DHT22;5546;48.714;8.738;2023-03-01T15:38:34;8.60;61.20
10986;DHT22;5546;48.714;8.738;2023-03-01T15:41:05;9.20;60.50
10986;DHT22;5546;48.714;8.738;2023-03-01T15:43:43;9.00;60.00
10986;DHT22;5546;48.714;8.738;2023-03-01T15:48:45;8.60;61.60
10986;DHT22;5546;48.714;8.738;2023-03-01T15:51:13;9.00;60.50
10986;DHT22;5546;48.714;8.738;2023-03-01T15:56:06;8.70;61.80
10986;DHT22;5546;48.714;8.738;2023-03-01T16:08:18;8.00;63.40
10986;DHT22;5546;48.714;8.738;2023-03-01T16:10:44;8.30;63.40
10986;DHT22;5546;48.714;8.738;2023-03-01T16:13:13;8.10;63.40
10986;DHT22;5546;48.714;8.738;2023-03-01T16:18:05;7.80;63.50
10986;DHT22;5546;48.714;8.738;2023-03-01T16:20:32;7.70;64.30
10986;DHT22;5546;48.714;8.738;2023-03-01T16:22:58;7.50;65.00
10986;DHT22;5546;48.714;8.738;2023-03-01T16:25:25;7.70;64.70
10986;DHT22;5546;48.714;8.738;2023-03-01T16:27:51;7.50;65.10
10986;DHT22;5546;48.714;8.738;2023-03-01T16:30:20;7.50;65.10
10986;DHT22;5546;48.714;8.738;2023-03-01T16:32:47;7.50;65.00
10986;DHT22;5546;48.714;8.738;2023-03-01T16:35:14;7.60;65.10
10986;DHT22;5546;48.714;8.738;2023-03-01T16:37:40;7.50;64.90
10986;DHT22;5546;48.714;8.738;2023-03-01T16:40:25;7.60;65.20
10986;DHT22;5546;48.714;8.738;2023-03-01T16:42:52;7.90;64.80
10986;DHT22;5546;48.714;8.738;2023-03-01T16:45:18;7.70;64.30
10986;DHT22;5546;48.714;8.738;2023-03-01T16:47:44;7.80;64.10
10986;DHT22;5546;48.714;8.738;2023-03-01T16:50:10;7.90;64.20
10986;DHT22;5546;48.714;8.738;2023-03-01T16:55:03;7.70;64.60
10986;DHT22;5546;48.714;8.738;2023-03-01T16:57:30;7.60;64.50
10986;DHT22;5546;48.714;8.738;2023-03-01T17:02:21;7.50;64.90
10986;DHT22;5546;48.714;8.738;2023-03-01T17:04:54;7.70;64.50
10986;DHT22;5546;48.714;8.738;2023-03-01T17:07:20;7.60;65.40
10986;DHT22;5546;48.714;8.738;2023-03-01T17:14:39;7.40;66.60
10986;DHT22;5546;48.714;8.738;2023-03-01T17:17:07;7.70;65.20
10986;DHT22;5546;48.714;8.738;2023-03-01T17:22:03;6.90;66.10
10986;DHT22;5546;48.714;8.738;2023-03-01T17:24:32;7.30;66.50
10986;DHT22;5546;48.714;8.738;2023-03-01T17:26:58;7.60;66.10
10986;DHT22;5546;48.714;8.738;2023-03-01T17:31:49;7.30;66.30
10986;DHT22;5546;48.714;8.738;2023-03-01T17:34:15;7.30;66.90
10986;DHT22;5546;48.714;8.738;2023-03-01T17:39:09;7.20;66.80
10986;DHT22;5546;48.714;8.738;2023-03-01T17:41:35;7.10;67.20
10986;DHT22;5546;48.714;8.738;2023-03-01T17:58:37;7.10;66.80
10986;DHT22;5546;48.714;8.738;2023-03-01T18:01:12;6.90;68.10
10986;DHT22;5546;48.714;8.738;2023-03-01T18:03:39;7.00;68.10
10986;DHT22;5546;48.714;8.738;2023-03-01T18:06:14;7.00;67.40
10986;DHT22;5546;48.714;8.738;2023-03-01T18:08:40;6.90;68.10
10986;DHT22;5546;48.714;8.738;2023-03-01T18:11:06;6.80;68.90
10986;DHT22;5546;48.714;8.738;2023-03-01T18:13:33;6.60;69.30
10986;DHT22;5546;48.714;8.738;2023-03-01T18:18:29;6.10;70.90
10986;DHT22;5546;48.714;8.738;2023-03-01T18:20:58;6.00;72.20
10986;DHT22;5546;48.714;8.738;2023-03-01T18:23:25;6.10;72.70
10986;DHT22;5546;48.714;8.738;2023-03-01T18:25:51;6.10;71.70
10986;DHT22;5546;48.714;8.738;2023-03-01T18:28:18;6.00;72.60
10986;DHT22;5546;48.714;8.738;2023-03-01T18:33:09;5.80;73.00
10986;DHT22;5546;48.714;8.738;2023-03-01T18:35:36;6.30;72.90
10986;DHT22;5546;48.714;8.738;2023-03-01T18:38:02;5.60;73.60
10986;DHT22;5546;48.714;8.738;2023-03-01T18:40:28;5.40;74.50
10986;DHT22;5546;48.714;8.738;2023-03-01T18:45:20;6.00;72.70
10986;DHT22;5546;48.714;8.738;2023-03-01T18:47:45;5.70;73.50
10986;DHT22;5546;48.714;8.738;2023-03-01T18:50:17;5.70;73.30
10986;DHT22;5546;48.714;8.738;2023-03-01T18:55:09;5.50;73.80
10986;DHT22;5546;48.714;8.738;2023-03-01T19:00:02;5.10;75.50
10986;DHT22;5546;48.714;8.738;2023-03-01T19:02:28;5.10;76.10
10986;DHT22;5546;48.714;8.738;2023-03-01T19:04:53;5.10;75.60
10986;DHT22;5546;48.714;8.738;2023-03-01T19:07:19;5.20;75.20
10986;DHT22;5546;48.714;8.738;2023-03-01T19:09:45;5.10;75.50
10986;DHT22;5546;48.714;8.738;2023-03-01T19:12:11;5.20;75.60
10986;DHT22;5546;48.714;8.738;2023-03-01T19:21:55;5.10;76.10
10986;DHT22;5546;48.714;8.738;2023-03-01T19:38:59;4.70;77.30
10986;DHT22;5546;48.714;8.738;2023-03-01T19:41:25;4.70;77.50
10986;DHT22;5546;48.714;8.738;2023-03-01T19:43:51;4.70;77.60
10986;DHT22;5546;48.714;8.738;2023-03-01T19:46:18;4.70;77.40
10986;DHT22;5546;48.714;8.738;2023-03-01T19:51:10;4.60;78.10
10986;DHT22;5546;48.714;8.738;2023-03-01T19:53:37;4.60;78.00
10986;DHT22;5546;48.714;8.738;2023-03-01T19:56:04;4.60;78.10
10986;DHT22;5546;48.714;8.738;2023-03-01T19:58:30;4.50;77.80
10986;DHT22;5546;48.714;8.738;2023-03-01T20:00:57;4.30;78.40
10986;DHT22;5546;48.714;8.738;2023-03-01T20:03:33;4.20;79.00
10986;DHT22;5546;48.714;8.738;2023-03-01T20:06:07;4.40;78.60
10986;DHT22;5546;48.714;8.738;2023-03-01T20:11:07;4.30;79.60
10986;DHT22;5546;48.714;8.738;2023-03-01T20:13:33;4.10;79.30
10986;DHT22;5546;48.714;8.738;2023-03-01T20:18:26;4.30;78.70
10986;DHT22;5546;48.714;8.738;2023-03-01T20:23:18;4.30;79.10
10986;DHT22;5546;48.714;8.738;2023-03-01T20:25:46;4.30;78.90
10986;DHT22;5546;48.714;8.738;2023-03-01T20:28:15;4.20;79.20
10986;DHT22;5546;48.714;8.738;2023-03-01T20:30:41;4.20;79.00
10986;DHT22;5546;48.714;8.738;2023-03-01T20:35:33;4.10;79.50
10986;DHT22;5546;48.714;8.738;2023-03-01T20:38:01;3.90;79.90
10986;DHT22;5546;48.714;8.738;2023-03-01T20:42:54;4.00;80.60
10986;DHT22;5546;48.714;8.738;2023-03-01T20:47:46;3.80;80.40
10986;DHT22;5546;48.714;8.738;2023-03-01T20:50:14;3.90;80.90
10986;DHT22;5546;48.714;8.738;2023-03-01T20:57:33;3.60;81.60
10986;DHT22;5546;48.714;8.738;2023-03-01T21:12:10;3.50;81.60
10986;DHT22;5546;48.714;8.738;2023-03-01T21:17:11;3.50;83.00
10986;DHT22;5546;48.714;8.738;2023-03-01T21:19:38;3.40;82.80
10986;DHT22;5546;48.714;8.738;2023-03-01T21:22:04;3.70;82.40
10986;DHT22;5546;48.714;8.738;2023-03-01T21:24:30;3.70;81.90
10986;DHT22;5546;48.714;8.738;2023-03-01T21:26:55;3.80;82.00
10986;DHT22;5546;48.714;8.738;2023-03-01T21:29:21;3.70;81.90
10986;DHT22;5546;48.714;8.738;2023-03-01T21:36:39;3.70;82.20
10986;DHT22;5546;48.714;8.738;2023-03-01T21:39:05;3.80;81.50
10986;DHT22;5546;48.714;8.738;2023-03-01T21:41:35;3.50;82.20
10986;DHT22;5546;48.714;8.738;2023-03-01T21:44:03;3.30;82.90
10986;DHT22;5546;48.714;8.738;2023-03-01T21:46:32;3.20;83.60
10986;DHT22;5546;48.714;8.738;2023-03-01T21:48:58;3.50;82.80
10986;DHT22;5546;48.714;8.738;2023-03-01T21:51:26;3.50;82.60
10986;DHT22;5546;48.714;8.738;2023-03-01T21:53:54;3.40;82.90
10986;DHT22;5546;48.714;8.738;2023-03-01T21:56:22;3.40;82.90
10986;DHT22;5546;48.714;8.738;2023-03-01T21:58:48;3.50;83.00
10986;DHT22;5546;48.714;8.738;2023-03-01T22:01:17;3.50;83.00
10986;DHT22;5546;48.714;8.738;2023-03-01T22:06:12;3.60;82.60
10986;DHT22;5546;48.714;8.738;2023-03-01T22:08:46;3.50;82.80
10986;DHT22;5546;48.714;8.738;2023-03-01T22:11:12;3.40;82.80
10986;DHT22;5546;48.714;8.738;2023-03-01T22:13:38;3.50;83.00
10986;DHT22;5546;48.714;8.738;2023-03-01T22:16:03;3.50;82.70
10986;DHT22;5546;48.714;8.738;2023-03-01T22:18:29;3.40;83.00